createdAt,value
2024-03-20T00:01:38.645Z,66.74
2024-03-20T00:04:12.666Z,66.77
2024-03-20T00:06:44.215Z,67.19
2024-03-20T00:09:15.980Z,67.15
2024-03-20T00:11:48.611Z,67.29
2024-03-20T00:14:20.110Z,67.22
2024-03-20T00:16:52.366Z,67.10
2024-03-20T00:19:24.037Z,67.04
2024-03-20T00:21:55.608Z,67.19
2024-03-20T00:24:27.150Z,66.98
2024-03-20T00:26:59.111Z,67.14
2024-03-20T00:29:30.694Z,66.73
2024-03-20T00:32:02.228Z,66.84
2024-03-20T00:34:33.776Z,66.90
2024-03-20T00:37:05.355Z,67.16
2024-03-20T00:39:37.295Z,67.21
2024-03-20T00:42:09.056Z,67.28
2024-03-20T00:44:40.610Z,67.10
2024-03-20T00:47:12.166Z,67.34
2024-03-20T00:49:43.722Z,67.20
2024-03-20T00:52:16.916Z,66.99
2024-03-20T00:54:48.757Z,67.15
2024-03-20T00:57:20.654Z,67.12
2024-03-20T00:59:52.941Z,67.11
2024-03-20T01:02:24.360Z,67.31
2024-03-20T01:04:55.913Z,67.37
2024-03-20T01:07:27.472Z,67.42
2024-03-20T01:09:59.232Z,67.38
2024-03-20T01:12:32.014Z,67.02
2024-03-20T01:15:03.575Z,67.26
2024-03-20T01:17:35.945Z,67.73
2024-03-20T01:20:12.619Z,67.65
2024-03-20T01:22:44.178Z,68.11
2024-03-20T01:25:15.741Z,67.90
2024-03-20T01:27:47.906Z,68.00
2024-03-20T01:30:19.497Z,67.84
2024-03-20T01:32:51.424Z,67.80
2024-03-20T01:35:22.971Z,67.92
2024-03-20T01:37:54.938Z,67.79
2024-03-20T01:40:25.262Z,67.97
2024-03-20T01:42:58.525Z,68.16
2024-03-20T01:45:30.419Z,68.23
2024-03-20T01:48:01.976Z,68.40
2024-03-20T01:50:33.549Z,68.36
2024-03-20T01:53:06.722Z,68.24
2024-03-20T01:55:39.095Z,68.05
2024-03-20T01:58:10.856Z,68.11
2024-03-20T02:00:42.410Z,68.24
2024-03-20T02:03:18.541Z,68.33
2024-03-20T02:06:42.660Z,68.40
2024-03-20T02:09:14.846Z,68.22
2024-03-20T02:11:46.385Z,68.25
2024-03-20T02:14:17.938Z,68.22
2024-03-20T02:16:49.494Z,68.30
2024-03-20T02:19:21.048Z,68.17
2024-03-20T02:21:52.600Z,68.28
2024-03-20T02:24:24.185Z,68.61
2024-03-20T02:26:55.714Z,68.70
2024-03-20T02:29:27.277Z,68.71
2024-03-20T02:31:58.820Z,68.73
2024-03-20T02:34:30.374Z,68.62
2024-03-20T02:37:01.933Z,68.37
2024-03-20T02:39:33.485Z,68.39
2024-03-20T02:42:05.400Z,68.64
2024-03-20T02:44:37.008Z,68.69
2024-03-20T02:47:10.617Z,68.51
2024-03-20T02:49:42.370Z,68.40
2024-03-20T02:52:14.538Z,68.45
2024-03-20T02:54:46.093Z,68.40
2024-03-20T02:57:17.648Z,68.78
2024-03-20T02:59:49.002Z,68.68
2024-03-20T03:02:20.849Z,68.61
2024-03-20T03:04:52.521Z,68.68
2024-03-20T03:07:27.349Z,68.73
2024-03-20T03:09:59.315Z,68.72
2024-03-20T03:12:29.646Z,69.02
2024-03-20T03:15:07.071Z,69.28
2024-03-20T03:17:40.745Z,69.21
2024-03-20T03:20:15.854Z,68.90
2024-03-20T03:22:49.587Z,69.05
2024-03-20T03:25:21.344Z,68.58
2024-03-20T03:27:52.898Z,68.59
2024-03-20T03:30:24.868Z,68.73
2024-03-20T03:32:56.414Z,68.93
2024-03-20T03:35:27.976Z,68.69
2024-03-20T03:37:59.305Z,68.99
2024-03-20T03:40:30.894Z,68.99
2024-03-20T03:43:02.438Z,68.95
2024-03-20T03:45:33.989Z,68.87
2024-03-20T03:48:06.264Z,68.72
2024-03-20T03:50:37.714Z,68.60
2024-03-20T03:53:09.266Z,68.75
2024-03-20T03:55:40.825Z,68.66
2024-03-20T03:58:12.888Z,68.51
2024-03-20T04:00:43.113Z,69.07
2024-03-20T04:03:14.694Z,68.86
2024-03-20T04:05:46.845Z,69.04
2024-03-20T04:08:16.971Z,68.76
2024-03-20T04:10:49.332Z,68.82
2024-03-20T04:13:20.894Z,69.38
2024-03-20T04:15:54.057Z,68.91
2024-03-20T04:18:25.636Z,69.01
2024-03-20T04:20:57.190Z,68.92
2024-03-20T04:23:29.362Z,69.08
2024-03-20T04:25:59.497Z,69.06
2024-03-20T04:28:31.040Z,69.24
2024-03-20T04:31:02.597Z,69.32
2024-03-20T04:33:34.149Z,69.25
2024-03-20T04:36:09.550Z,69.27
2024-03-20T04:38:40.953Z,69.32
2024-03-20T04:41:14.210Z,69.59
2024-03-20T04:43:45.692Z,69.37
2024-03-20T04:46:17.657Z,69.26
2024-03-20T04:48:49.217Z,69.01
2024-03-20T04:51:20.771Z,68.94
2024-03-20T04:53:53.223Z,68.84
2024-03-20T04:56:25.109Z,68.75
2024-03-20T04:58:56.669Z,68.86
2024-03-20T05:01:28.423Z,69.05
2024-03-20T05:03:59.979Z,69.43
2024-03-20T05:06:31.771Z,69.57
2024-03-20T05:09:03.497Z,69.87
2024-03-20T05:11:35.677Z,69.96
2024-03-20T05:14:07.421Z,69.73
2024-03-20T05:16:40.019Z,69.67
2024-03-20T05:19:13.608Z,69.66
2024-03-20T05:21:45.161Z,69.38
2024-03-20T05:24:17.131Z,69.41
2024-03-20T05:26:49.298Z,69.80
2024-03-20T05:29:21.930Z,69.64
2024-03-20T05:31:55.273Z,69.57
2024-03-20T05:34:26.829Z,69.55
2024-03-20T05:36:58.381Z,69.82
2024-03-20T05:39:30.451Z,69.88
2024-03-20T05:42:02.309Z,70.05
2024-03-20T05:44:33.875Z,69.98
2024-03-20T05:47:05.994Z,70.08
2024-03-20T05:49:36.566Z,70.32
2024-03-20T05:52:12.766Z,70.43
2024-03-20T05:54:45.420Z,70.65
2024-03-20T05:57:16.965Z,70.70
2024-03-20T05:59:49.133Z,70.53
2024-03-20T06:02:20.687Z,70.59
2024-03-20T06:04:52.446Z,70.78
2024-03-20T06:07:24.004Z,70.85
2024-03-20T06:09:55.563Z,70.71
2024-03-20T06:12:28.784Z,70.64
2024-03-20T06:15:00.344Z,70.68
2024-03-20T06:17:31.868Z,70.56
2024-03-20T06:20:06.994Z,70.47
2024-03-20T06:22:40.597Z,70.48
2024-03-20T06:25:14.118Z,70.86
2024-03-20T06:27:46.074Z,70.88
2024-03-20T06:30:16.874Z,70.98
2024-03-20T06:32:49.024Z,71.04
2024-03-20T06:35:20.685Z,70.91
2024-03-20T06:37:52.297Z,71.01
2024-03-20T06:40:28.021Z,70.87
2024-03-20T06:43:00.940Z,70.88
2024-03-20T06:45:35.935Z,70.65
2024-03-20T06:48:09.392Z,70.57
2024-03-20T06:50:41.546Z,70.57
2024-03-20T06:53:13.100Z,70.18
2024-03-20T06:55:46.536Z,69.97
2024-03-20T06:58:18.049Z,69.57
2024-03-20T07:00:49.607Z,69.46
2024-03-20T07:03:21.160Z,69.15
2024-03-20T07:05:53.060Z,68.80
2024-03-20T07:08:26.112Z,68.44
2024-03-20T07:10:58.084Z,68.31
2024-03-20T07:13:29.928Z,67.47
2024-03-20T07:15:59.816Z,67.47
2024-03-20T07:18:31.392Z,66.88
2024-03-20T07:21:02.742Z,66.70
2024-03-20T07:23:34.217Z,66.64
2024-03-20T07:26:07.457Z,66.36
2024-03-20T07:28:39.374Z,65.73
2024-03-20T07:31:09.516Z,65.67
2024-03-20T07:33:41.052Z,65.70
2024-03-20T07:36:12.608Z,65.20
2024-03-20T07:38:44.159Z,64.94
2024-03-20T07:41:14.293Z,64.51
2024-03-20T07:43:46.860Z,63.79
2024-03-20T07:46:19.442Z,63.58
2024-03-20T07:48:51.636Z,62.97
2024-03-20T07:51:23.405Z,63.04
2024-03-20T07:53:55.131Z,62.87
2024-03-20T07:56:27.120Z,62.34
2024-03-20T07:58:58.650Z,61.82
2024-03-20T08:01:30.221Z,61.99
2024-03-20T08:04:01.563Z,61.72
2024-03-20T08:06:32.910Z,61.74
2024-03-20T08:09:05.238Z,61.08
2024-03-20T08:11:37.820Z,60.55
2024-03-20T08:14:10.851Z,60.26
2024-03-20T08:16:43.227Z,60.05
2024-03-20T08:19:14.781Z,59.88
2024-03-20T08:21:46.631Z,59.50
2024-03-20T08:24:19.054Z,59.59
2024-03-20T08:26:51.088Z,58.95
2024-03-20T08:29:22.645Z,58.56
2024-03-20T08:31:54.624Z,58.40
2024-03-20T08:34:26.984Z,58.24
2024-03-20T08:36:58.584Z,57.87
2024-03-20T08:39:30.100Z,57.09
2024-03-20T08:42:02.939Z,56.68
2024-03-20T08:44:34.845Z,56.23
2024-03-20T08:47:07.222Z,55.78
2024-03-20T08:49:39.313Z,55.63
2024-03-20T08:52:13.404Z,56.16
2024-03-20T08:54:45.588Z,56.08
2024-03-20T08:57:17.740Z,55.06
2024-03-20T08:59:49.913Z,54.71
2024-03-20T09:02:21.591Z,54.44
2024-03-20T09:04:53.223Z,54.07
2024-03-20T09:07:24.550Z,53.20
2024-03-20T09:09:55.923Z,52.47
2024-03-20T09:12:27.482Z,52.43
2024-03-20T09:14:59.045Z,52.18
2024-03-20T09:17:30.684Z,51.22
2024-03-20T09:20:05.154Z,50.93
2024-03-20T09:22:36.781Z,50.30
2024-03-20T09:25:07.638Z,50.39
2024-03-20T09:27:39.231Z,50.28
2024-03-20T09:30:15.314Z,50.41
2024-03-20T09:32:48.156Z,49.96
2024-03-20T09:35:19.617Z,49.80
2024-03-20T09:37:55.073Z,48.56
2024-03-20T09:40:29.005Z,47.66
2024-03-20T09:43:00.450Z,46.58
2024-03-20T09:45:32.481Z,45.89
2024-03-20T09:48:04.000Z,45.57
2024-03-20T09:50:39.773Z,46.08
2024-03-20T09:53:11.801Z,46.16
2024-03-20T09:55:46.049Z,46.14
2024-03-20T09:58:17.791Z,45.14
2024-03-20T10:00:50.101Z,44.68
2024-03-20T10:03:24.932Z,44.25
2024-03-20T10:05:56.798Z,43.34
2024-03-20T10:08:26.675Z,42.96
2024-03-20T10:10:59.147Z,42.43
2024-03-20T10:13:31.442Z,41.82
2024-03-20T10:16:22.268Z,41.00
2024-03-20T10:18:58.102Z,40.74
2024-03-20T10:21:31.296Z,40.98
2024-03-20T10:24:03.055Z,40.70
2024-03-20T10:26:34.954Z,40.51
2024-03-20T10:29:15.834Z,39.90
2024-03-20T10:31:54.657Z,38.86
2024-03-20T10:34:27.967Z,37.52
2024-03-20T10:37:00.289Z,36.88
2024-03-20T10:39:33.397Z,36.70
2024-03-20T10:42:07.741Z,36.90
2024-03-20T10:44:39.992Z,36.43
2024-03-20T10:47:14.110Z,36.46
2024-03-20T10:49:48.600Z,35.96
2024-03-20T10:52:20.710Z,35.35
2024-03-20T10:54:53.954Z,35.10
2024-03-20T10:57:25.990Z,35.12
2024-03-20T11:00:01.488Z,35.47
2024-03-20T11:02:33.247Z,34.77
2024-03-20T11:05:06.779Z,34.58
2024-03-20T11:07:40.251Z,34.59
2024-03-20T11:10:23.630Z,34.21
2024-03-20T11:12:59.134Z,33.59
2024-03-20T11:15:33.349Z,32.07
2024-03-20T11:18:13.306Z,30.91
2024-03-20T11:20:46.284Z,30.51
2024-03-20T11:23:28.622Z,30.24
2024-03-20T11:26:00.485Z,29.27
2024-03-20T11:28:32.061Z,29.01
2024-03-20T11:31:04.332Z,28.44
2024-03-20T11:33:36.159Z,27.97
2024-03-20T11:36:10.499Z,26.76
2024-03-20T11:38:42.273Z,26.09
2024-03-20T11:41:17.992Z,25.88
2024-03-20T11:43:50.371Z,25.53
2024-03-20T11:46:22.752Z,24.94
2024-03-20T11:48:56.188Z,23.85
2024-03-20T11:51:29.544Z,22.99
2024-03-20T11:54:01.101Z,22.43
2024-03-20T11:56:32.786Z,21.44
2024-03-20T11:59:04.821Z,20.58
2024-03-20T12:01:38.014Z,20.33
2024-03-20T12:04:12.402Z,19.53
2024-03-20T12:06:44.019Z,18.72
2024-03-20T12:09:18.857Z,18.06
2024-03-20T12:11:50.380Z,17.82
2024-03-20T12:14:21.953Z,17.42
2024-03-20T12:16:54.931Z,16.65
2024-03-20T12:19:26.692Z,16.41
2024-03-20T12:21:58.251Z,16.17
2024-03-20T12:24:29.799Z,15.77
2024-03-20T12:27:01.562Z,15.50
2024-03-20T12:29:33.626Z,14.99
2024-03-20T12:32:06.021Z,14.58
2024-03-20T12:34:38.440Z,14.68
2024-03-20T12:37:12.498Z,14.34
2024-03-20T12:39:46.053Z,14.14
2024-03-20T12:42:17.453Z,13.58
2024-03-20T12:44:49.007Z,13.96
2024-03-20T12:47:21.172Z,14.21
2024-03-20T12:49:54.161Z,14.04
2024-03-20T12:52:26.747Z,14.43
2024-03-20T12:54:59.810Z,14.48
2024-03-20T12:57:31.492Z,14.26
2024-03-20T13:00:03.476Z,14.16
2024-03-20T13:02:36.036Z,14.02
2024-03-20T13:05:10.742Z,13.99
2024-03-20T13:07:42.424Z,13.63
2024-03-20T13:10:14.957Z,13.55
2024-03-20T13:12:47.093Z,14.02
2024-03-20T13:15:19.705Z,14.20
2024-03-20T13:17:52.137Z,14.19
2024-03-20T13:20:24.517Z,14.36
2024-03-20T13:22:56.061Z,14.97
2024-03-20T13:25:31.513Z,15.27
2024-03-20T13:28:04.587Z,15.06
2024-03-20T13:30:36.055Z,15.21
2024-03-20T13:33:08.067Z,15.68
2024-03-20T13:35:42.035Z,16.20
2024-03-20T13:38:20.551Z,16.38
2024-03-20T13:41:02.966Z,16.58
2024-03-20T13:43:52.747Z,16.38
2024-03-20T13:46:24.302Z,16.03
2024-03-20T13:48:56.061Z,15.77
2024-03-20T13:51:28.027Z,16.25
2024-03-20T13:53:59.582Z,16.97
2024-03-20T13:56:31.340Z,16.93
2024-03-20T13:59:03.309Z,17.61
2024-03-20T14:01:37.297Z,18.51
2024-03-20T14:04:09.691Z,18.93
2024-03-20T14:06:41.863Z,19.29
2024-03-20T14:09:14.447Z,19.75
2024-03-20T14:11:46.005Z,20.03
2024-03-20T14:14:17.761Z,20.59
2024-03-20T14:16:49.317Z,21.17
2024-03-20T14:19:20.870Z,21.44
2024-03-20T14:21:53.453Z,21.09
2024-03-20T14:24:26.438Z,21.33
2024-03-20T14:26:57.817Z,21.79
2024-03-20T14:29:30.484Z,22.41
2024-03-20T14:32:02.135Z,23.16
2024-03-20T14:34:33.685Z,23.38
2024-03-20T14:37:05.707Z,23.98
2024-03-20T14:39:37.858Z,24.44
2024-03-20T14:42:10.012Z,25.03
2024-03-20T14:44:41.552Z,25.48
2024-03-20T14:47:16.338Z,25.86
2024-03-20T14:49:49.218Z,26.19
2024-03-20T14:52:21.520Z,26.88
2024-03-20T14:54:53.604Z,27.38
2024-03-20T14:57:25.682Z,27.71
2024-03-20T14:59:57.388Z,28.04
2024-03-20T15:02:30.983Z,28.38
2024-03-20T15:05:02.597Z,28.86
2024-03-20T15:07:34.166Z,29.33
2024-03-20T15:10:06.741Z,29.73
2024-03-20T15:12:38.294Z,29.97
2024-03-20T15:15:13.511Z,30.43
2024-03-20T15:17:47.079Z,30.76
2024-03-20T15:20:18.658Z,30.49
2024-03-20T15:22:50.563Z,30.67
2024-03-20T15:25:22.754Z,30.66
2024-03-20T15:27:55.015Z,30.99
2024-03-20T15:30:27.366Z,31.30
2024-03-20T15:32:59.333Z,31.48
2024-03-20T15:35:31.812Z,31.44
2024-03-20T15:38:03.261Z,31.69
2024-03-20T15:40:35.027Z,31.99
2024-03-20T15:43:09.261Z,32.13
2024-03-20T15:45:40.936Z,32.52
2024-03-20T15:48:12.964Z,32.57
2024-03-20T15:50:44.520Z,32.72
2024-03-20T15:53:18.187Z,32.87
2024-03-20T15:55:49.683Z,32.97
2024-03-20T15:58:21.232Z,33.51
2024-03-20T16:00:52.813Z,33.52
2024-03-20T16:03:25.367Z,34.21
2024-03-20T16:06:00.873Z,33.90
2024-03-20T16:08:33.195Z,34.55
2024-03-20T16:11:05.912Z,34.68
2024-03-20T16:13:38.294Z,34.80
2024-03-20T16:16:17.985Z,34.91
2024-03-20T16:18:49.876Z,35.84
2024-03-20T16:21:22.020Z,36.23
2024-03-20T16:23:55.423Z,36.91
2024-03-20T16:26:27.179Z,37.35
2024-03-20T16:28:58.736Z,37.65
2024-03-20T16:31:30.651Z,37.71
2024-03-20T16:34:02.262Z,37.98
2024-03-20T16:36:39.134Z,38.33
2024-03-20T16:39:12.229Z,38.59
2024-03-20T16:41:43.882Z,38.89
2024-03-20T16:44:15.445Z,39.22
2024-03-20T16:46:45.362Z,39.56
2024-03-20T16:49:17.935Z,39.87
2024-03-20T16:51:50.113Z,40.28
2024-03-20T16:54:21.656Z,40.67
2024-03-20T16:56:53.208Z,40.95
2024-03-20T16:59:25.818Z,41.17
2024-03-20T17:01:59.392Z,41.64
2024-03-20T17:04:31.767Z,42.11
2024-03-20T17:07:07.152Z,42.50
2024-03-20T17:09:40.309Z,42.88
2024-03-20T17:12:13.022Z,43.36
2024-03-20T17:14:47.404Z,43.69
2024-03-20T17:17:19.777Z,44.11
2024-03-20T17:19:51.333Z,44.51
2024-03-20T17:22:23.095Z,45.04
2024-03-20T17:24:55.928Z,45.45
2024-03-20T17:27:27.434Z,45.65
2024-03-20T17:29:58.991Z,45.85
2024-03-20T17:32:31.381Z,46.10
2024-03-20T17:35:03.131Z,46.57
2024-03-20T17:37:35.505Z,46.91
2024-03-20T17:40:11.203Z,47.08
2024-03-20T17:42:43.121Z,47.48
2024-03-20T17:45:16.051Z,47.67
2024-03-20T17:47:47.454Z,47.82
2024-03-20T17:50:19.013Z,48.08
2024-03-20T17:52:49.135Z,48.27
2024-03-20T17:55:21.099Z,48.56
2024-03-20T17:57:52.386Z,48.62
2024-03-20T18:00:24.420Z,48.87
2024-03-20T18:02:55.983Z,48.92
2024-03-20T18:05:27.526Z,49.29
2024-03-20T18:07:58.808Z,49.70
2024-03-20T18:10:30.207Z,49.74
2024-03-20T18:13:01.522Z,50.15
2024-03-20T18:15:33.138Z,50.50
2024-03-20T18:18:05.303Z,50.53
2024-03-20T18:20:40.096Z,50.75
2024-03-20T18:23:11.517Z,50.98
2024-03-20T18:25:43.272Z,50.91
2024-03-20T18:28:15.629Z,51.57
2024-03-20T18:30:50.043Z,51.61
2024-03-20T18:33:21.602Z,51.86
2024-03-20T18:35:53.773Z,51.65
2024-03-20T18:38:25.328Z,52.65
2024-03-20T18:40:55.450Z,52.59
2024-03-20T18:43:27.009Z,52.45
2024-03-20T18:45:59.127Z,53.04
2024-03-20T18:48:30.457Z,52.97
2024-03-20T18:51:01.883Z,53.31
2024-03-20T18:53:35.263Z,53.42
2024-03-20T18:56:09.064Z,53.65
2024-03-20T18:58:42.622Z,54.18
2024-03-20T19:01:17.394Z,54.02
2024-03-20T19:03:49.281Z,54.30
2024-03-20T19:06:23.969Z,54.66
2024-03-20T19:08:55.469Z,54.60
2024-03-20T19:11:27.023Z,54.80
2024-03-20T19:13:57.144Z,54.84
2024-03-20T19:16:28.704Z,55.10
2024-03-20T19:19:00.489Z,55.58
2024-03-20T19:21:32.644Z,55.44
2024-03-20T19:24:04.847Z,55.49
2024-03-20T19:26:36.768Z,55.74
2024-03-20T19:29:08.336Z,55.76
2024-03-20T19:31:39.883Z,55.91
2024-03-20T19:34:15.776Z,56.30
2024-03-20T19:36:47.295Z,56.15
2024-03-20T19:39:21.330Z,56.76
2024-03-20T19:41:53.619Z,56.32
2024-03-20T19:44:25.849Z,56.56
2024-03-20T19:46:58.017Z,56.98
2024-03-20T19:49:29.993Z,56.94
2024-03-20T19:52:03.605Z,56.94
2024-03-20T19:54:35.565Z,56.86
2024-03-20T19:57:07.520Z,56.59
2024-03-20T19:59:39.489Z,57.18
2024-03-20T20:02:12.404Z,57.26
2024-03-20T20:04:44.457Z,56.91
2024-03-20T20:07:17.023Z,57.52
2024-03-20T20:09:49.325Z,57.45
2024-03-20T20:12:20.952Z,57.68
2024-03-20T20:14:50.871Z,57.95
2024-03-20T20:17:22.427Z,57.98
2024-03-20T20:19:52.751Z,58.12
2024-03-20T20:22:24.308Z,58.35
2024-03-20T20:24:57.323Z,58.62
2024-03-20T20:27:29.470Z,58.40
2024-03-20T20:30:04.513Z,58.60
2024-03-20T20:32:38.707Z,58.71
2024-03-20T20:35:12.807Z,58.69
2024-03-20T20:37:44.171Z,58.65
2024-03-20T20:40:23.371Z,58.66
2024-03-20T20:42:55.602Z,58.96
2024-03-20T20:45:27.158Z,58.90
2024-03-20T20:47:59.094Z,59.01
2024-03-20T20:50:30.680Z,58.86
2024-03-20T20:53:00.799Z,58.97
2024-03-20T20:55:36.868Z,58.91
2024-03-20T20:58:10.469Z,58.84
2024-03-20T21:00:42.890Z,58.78
2024-03-20T21:03:32.006Z,59.26
2024-03-20T21:06:25.272Z,59.08
2024-03-20T21:09:25.908Z,58.88
2024-03-20T21:12:15.283Z,59.16
2024-03-20T21:15:04.487Z,59.20
2024-03-20T21:17:53.828Z,59.23
2024-03-20T21:20:26.816Z,59.15
2024-03-20T21:23:00.014Z,59.17
2024-03-20T21:25:30.133Z,59.18
2024-03-20T21:28:01.719Z,59.02
2024-03-20T21:30:33.690Z,59.12
2024-03-20T21:33:05.209Z,59.19
2024-03-20T21:35:36.764Z,59.24
2024-03-20T21:38:09.074Z,59.34
2024-03-20T21:40:40.491Z,59.21
2024-03-20T21:43:13.274Z,59.25
2024-03-20T21:45:45.036Z,59.60
2024-03-20T21:48:15.975Z,59.13
2024-03-20T21:50:50.812Z,59.58
2024-03-20T21:53:23.323Z,59.67
2024-03-20T21:55:57.031Z,59.91
2024-03-20T21:58:29.570Z,60.03
2024-03-20T22:01:01.142Z,59.84
2024-03-20T22:03:33.717Z,59.82
2024-03-20T22:06:05.881Z,59.87
2024-03-20T22:08:46.141Z,59.67
2024-03-20T22:11:28.780Z,59.43
2024-03-20T22:14:06.052Z,59.54
2024-03-20T22:16:44.107Z,59.53
2024-03-20T22:19:16.642Z,59.45
2024-03-20T22:21:47.947Z,59.33
2024-03-20T22:24:19.262Z,59.46
2024-03-20T22:26:50.654Z,59.14
2024-03-20T22:29:22.508Z,59.14
2024-03-20T22:31:54.817Z,59.06
2024-03-20T22:34:26.988Z,59.22
2024-03-20T22:36:58.544Z,59.58
2024-03-20T22:39:30.309Z,59.19
2024-03-20T22:42:00.423Z,59.47
2024-03-20T22:44:31.979Z,59.21
2024-03-20T22:47:04.600Z,59.74
2024-03-20T22:49:35.911Z,59.70
2024-03-20T22:52:08.284Z,59.39
2024-03-20T22:54:40.859Z,59.53
2024-03-20T22:57:12.620Z,59.87
2024-03-20T22:59:44.804Z,59.63
2024-03-20T23:02:16.346Z,59.86
2024-03-20T23:04:48.240Z,59.89
2024-03-20T23:07:19.741Z,59.82
2024-03-20T23:09:54.437Z,59.63
2024-03-20T23:12:28.303Z,59.92
2024-03-20T23:14:59.859Z,60.04
2024-03-20T23:17:32.037Z,59.91
2024-03-20T23:20:03.792Z,59.99
2024-03-20T23:22:35.756Z,60.16
2024-03-20T23:25:11.958Z,60.07
2024-03-20T23:27:45.628Z,60.03
2024-03-20T23:30:17.794Z,60.12
2024-03-20T23:32:50.723Z,60.10
2024-03-20T23:35:23.360Z,60.08
2024-03-20T23:37:54.921Z,60.23
2024-03-20T23:40:29.021Z,60.32
2024-03-20T23:43:00.500Z,60.24
2024-03-20T23:45:32.248Z,60.23
2024-03-20T23:48:03.394Z,60.35
2024-03-20T23:50:34.952Z,60.46
2024-03-20T23:53:07.122Z,60.55
2024-03-20T23:55:38.402Z,60.47
2024-03-20T23:58:10.233Z,60.72
